createdAt,value
2019-04-22T00:00:11.169Z,70.98
2019-04-22T00:01:13.776Z,71.56
2019-04-22T00:02:12.937Z,71.35
2019-04-22T00:03:14.214Z,71.75
2019-04-22T00:04:17.399Z,71.22
2019-04-22T00:05:20.238Z,71.95
2019-04-22T00:06:34.116Z,71.88
2019-04-22T00:07:35.858Z,71.85
2019-04-22T00:09:41.843Z,72.40
2019-04-22T00:10:41.999Z,72.36
2019-04-22T00:11:28.863Z,72.33
2019-04-22T00:12:28.015Z,72.43
2019-04-22T00:14:30.890Z,72.71
2019-04-22T00:15:34.011Z,72.28
2019-04-22T00:16:34.295Z,72.28
2019-04-22T00:17:30.510Z,72.41
2019-04-22T00:18:48.006Z,72.26
2019-04-22T00:19:30.365Z,72.31
2019-04-22T00:20:35.417Z,72.95
2019-04-22T00:22:28.873Z,73.05
2019-04-22T00:23:24.680Z,73.12
2019-04-22T00:24:39.105Z,73.00
2019-04-22T00:27:42.440Z,73.12
2019-04-22T00:28:36.663Z,73.12
2019-04-22T00:29:53.875Z,73.25
2019-04-22T00:30:34.298Z,72.91
2019-04-22T00:31:33.204Z,72.64
2019-04-22T00:33:32.314Z,72.36
2019-04-22T00:34:29.407Z,72.16
2019-04-22T00:35:38.316Z,72.19
2019-04-22T00:36:35.030Z,72.32
2019-04-22T00:38:38.743Z,72.63
2019-04-22T00:39:33.731Z,72.90
2019-04-22T00:41:40.545Z,73.20
2019-04-22T00:44:39.077Z,73.36
2019-04-22T00:46:38.303Z,73.07
2019-04-22T00:48:35.959Z,73.25
2019-04-22T00:50:09.276Z,73.62
2019-04-22T00:50:37.433Z,73.42
2019-04-22T00:52:34.391Z,73.23
2019-04-22T00:53:35.256Z,73.11
2019-04-22T00:54:43.970Z,73.46
2019-04-22T00:55:38.089Z,73.19
2019-04-22T00:56:28.385Z,73.37
2019-04-22T00:57:32.448Z,73.07
2019-04-22T00:58:36.771Z,73.20
2019-04-22T00:59:32.971Z,73.22
2019-04-22T01:01:23.883Z,73.35
2019-04-22T01:03:43.726Z,73.00
2019-04-22T01:04:44.215Z,72.84
2019-04-22T01:05:30.225Z,72.47
2019-04-22T01:06:35.900Z,72.33
2019-04-22T01:08:43.506Z,72.15
2019-04-22T01:09:43.234Z,72.18
2019-04-22T01:10:39.023Z,72.11
2019-04-22T01:11:34.966Z,72.32
2019-04-22T01:12:28.561Z,72.15
2019-04-22T01:13:31.376Z,72.16
2019-04-22T01:14:38.252Z,72.16
2019-04-22T01:16:35.942Z,72.11
2019-04-22T01:18:32.604Z,71.90
2019-04-22T01:19:38.951Z,72.13
2019-04-22T01:21:00.846Z,72.22
2019-04-22T01:22:28.543Z,73.04
2019-04-22T01:23:34.544Z,73.16
2019-04-22T01:24:32.793Z,73.14
2019-04-22T01:25:30.965Z,73.06
2019-04-22T01:26:29.917Z,72.71
2019-04-22T01:27:26.318Z,73.15
2019-04-22T01:28:27.295Z,72.92
2019-04-22T01:29:22.626Z,73.14
2019-04-22T01:30:21.171Z,73.27
2019-04-22T01:31:17.883Z,73.18
2019-04-22T01:32:21.037Z,73.38
2019-04-22T01:33:21.068Z,73.07
2019-04-22T01:34:27.875Z,73.38
2019-04-22T01:35:20.953Z,73.28
2019-04-22T01:36:30.113Z,73.52
2019-04-22T01:37:31.634Z,73.36
2019-04-22T01:38:34.962Z,73.59
2019-04-22T01:39:39.022Z,73.97
2019-04-22T01:40:38.964Z,74.29
2019-04-22T01:41:41.824Z,73.92
2019-04-22T01:42:41.206Z,73.96
2019-04-22T01:43:41.003Z,74.46
2019-04-22T01:45:26.734Z,74.20
2019-04-22T01:46:41.830Z,74.14
2019-04-22T01:47:36.702Z,74.11
2019-04-22T01:48:40.580Z,74.32
2019-04-22T01:49:27.609Z,74.34
2019-04-22T01:50:26.310Z,73.92
2019-04-22T01:51:45.220Z,73.92
2019-04-22T01:52:41.620Z,73.72
2019-04-22T01:53:43.280Z,74.03
2019-04-22T01:54:45.421Z,73.88
2019-04-22T01:55:38.082Z,74.19
2019-04-22T01:56:27.367Z,74.27
2019-04-22T01:57:34.990Z,74.13
2019-04-22T01:59:31.900Z,74.24
2019-04-22T02:00:36.003Z,74.55
2019-04-22T02:01:30.747Z,74.38
2019-04-22T02:02:30.478Z,74.19
2019-04-22T02:03:44.409Z,74.12
2019-04-22T02:04:39.734Z,74.04
2019-04-22T02:05:35.766Z,74.36
2019-04-22T02:06:30.288Z,74.19
2019-04-22T02:07:34.344Z,74.40
2019-04-22T02:08:31.393Z,74.53
2019-04-22T02:10:40.375Z,74.93
2019-04-22T02:12:29.848Z,74.87
2019-04-22T02:13:38.188Z,74.62
2019-04-22T02:14:39.336Z,74.79
2019-04-22T02:15:46.511Z,74.38
2019-04-22T02:16:27.614Z,74.33
2019-04-22T02:17:38.293Z,74.27
2019-04-22T02:18:41.995Z,74.65
2019-04-22T02:19:41.420Z,74.60
2019-04-22T02:20:35.899Z,74.31
2019-04-22T02:21:38.212Z,74.25
2019-04-22T02:22:52.320Z,74.33
2019-04-22T02:24:42.506Z,74.77
2019-04-22T02:25:42.709Z,75.01
2019-04-22T02:26:31.395Z,74.99
2019-04-22T02:27:39.006Z,74.96
2019-04-22T02:30:54.272Z,75.10
2019-04-22T02:31:44.306Z,75.07
2019-04-22T02:34:01.256Z,75.25
2019-04-22T02:34:37.461Z,75.47
2019-04-22T02:36:33.906Z,75.21
2019-04-22T02:38:51.851Z,75.23
2019-04-22T02:40:58.450Z,75.07
2019-04-22T02:41:31.187Z,74.97
2019-04-22T02:42:35.247Z,75.15
2019-04-22T02:43:51.879Z,75.06
2019-04-22T02:44:28.725Z,74.95
2019-04-22T02:45:52.590Z,75.04
2019-04-22T02:46:56.792Z,75.12
2019-04-22T02:47:27.634Z,75.09
2019-04-22T02:49:37.360Z,75.24
2019-04-22T02:50:43.901Z,75.34
2019-04-22T02:51:32.877Z,75.34
2019-04-22T02:52:34.779Z,75.12
2019-04-22T02:54:15.147Z,75.16
2019-04-22T02:54:51.016Z,75.16
2019-04-22T02:55:32.369Z,75.46
2019-04-22T02:56:38.105Z,75.45
2019-04-22T02:57:45.077Z,75.27
2019-04-22T02:59:39.860Z,75.08
2019-04-22T03:00:46.669Z,75.17
2019-04-22T03:02:50.644Z,74.94
2019-04-22T03:04:41.453Z,74.99
2019-04-22T03:05:51.090Z,75.19
2019-04-22T03:06:38.562Z,75.31
2019-04-22T03:07:40.633Z,75.23
2019-04-22T03:10:37.176Z,75.51
2019-04-22T03:11:24.714Z,75.51
2019-04-22T03:12:28.456Z,75.50
2019-04-22T03:13:38.266Z,75.67
2019-04-22T03:14:40.422Z,75.61
2019-04-22T03:15:38.044Z,75.85
2019-04-22T03:16:31.953Z,75.73
2019-04-22T03:17:34.363Z,75.74
2019-04-22T03:20:33.530Z,75.52
2019-04-22T03:21:38.060Z,75.52
2019-04-22T03:22:28.684Z,75.30
2019-04-22T03:23:58.619Z,75.42
2019-04-22T03:24:36.285Z,75.50
2019-04-22T03:26:00.363Z,75.47
2019-04-22T03:26:38.889Z,75.55
2019-04-22T03:28:44.421Z,75.78
2019-04-22T03:30:00.911Z,75.81
2019-04-22T03:33:43.607Z,75.90
2019-04-22T03:36:05.971Z,75.92
2019-04-22T03:37:02.480Z,75.84
2019-04-22T03:40:46.661Z,75.82
2019-04-22T03:41:57.319Z,75.96
2019-04-22T03:42:52.081Z,75.95
2019-04-22T03:46:50.962Z,76.16
2019-04-22T03:47:48.050Z,76.25
2019-04-22T03:48:45.856Z,76.29
2019-04-22T03:49:57.841Z,76.34
2019-04-22T03:50:28.031Z,76.42
2019-04-22T03:52:30.969Z,76.32
2019-04-22T03:53:32.659Z,76.28
2019-04-22T03:54:53.883Z,76.15
2019-04-22T03:57:18.449Z,76.31
2019-04-22T03:57:50.437Z,76.19
2019-04-22T03:58:49.556Z,76.22
2019-04-22T03:59:48.094Z,76.16
2019-04-22T04:00:47.811Z,76.10
2019-04-22T04:01:37.055Z,76.15
2019-04-22T04:02:45.723Z,76.09
2019-04-22T04:03:36.318Z,76.15
2019-04-22T04:04:43.586Z,76.18
2019-04-22T04:07:47.482Z,76.32
2019-04-22T04:08:26.368Z,76.37
2019-04-22T04:10:40.097Z,76.47
2019-04-22T04:12:53.950Z,76.43
2019-04-22T04:13:37.403Z,76.43
2019-04-22T04:15:29.906Z,76.27
2019-04-22T04:16:52.122Z,76.19
2019-04-22T04:18:46.595Z,76.18
2019-04-22T04:20:44.779Z,76.08
2019-04-22T04:21:41.322Z,76.14
2019-04-22T04:24:53.809Z,75.98
2019-04-22T04:27:50.860Z,75.80
2019-04-22T04:28:39.796Z,75.56
2019-04-22T04:29:58.079Z,75.45
2019-04-22T04:30:31.231Z,75.44
2019-04-22T04:35:07.685Z,75.25
2019-04-22T04:37:52.502Z,75.33
2019-04-22T04:38:46.418Z,75.30
2019-04-22T04:39:53.454Z,75.34
2019-04-22T04:40:41.972Z,75.23
2019-04-22T04:41:57.440Z,75.02
2019-04-22T04:42:46.448Z,75.07
2019-04-22T04:44:59.239Z,74.93
2019-04-22T04:45:44.884Z,74.85
2019-04-22T04:47:49.345Z,74.95
2019-04-22T04:48:56.173Z,75.01
2019-04-22T04:49:37.451Z,75.04
2019-04-22T04:50:34.339Z,75.10
2019-04-22T04:51:33.252Z,75.11
2019-04-22T04:53:02.614Z,75.00
2019-04-22T04:54:53.844Z,75.08
2019-04-22T04:55:35.044Z,74.99
2019-04-22T04:56:42.441Z,74.88
2019-04-22T04:58:55.853Z,74.71
2019-04-22T05:00:10.860Z,74.59
2019-04-22T05:00:57.707Z,74.33
2019-04-22T05:01:45.084Z,74.34
2019-04-22T05:03:49.326Z,74.51
2019-04-22T05:05:45.654Z,74.51
2019-04-22T05:07:36.788Z,74.57
2019-04-22T05:09:01.485Z,74.35
2019-04-22T05:09:34.640Z,74.12
2019-04-22T05:10:47.936Z,73.90
2019-04-22T05:11:42.988Z,73.65
2019-04-22T05:12:53.091Z,73.69
2019-04-22T05:13:52.857Z,73.10
2019-04-22T05:15:55.369Z,72.89
2019-04-22T05:17:35.177Z,72.66
2019-04-22T05:18:44.274Z,72.29
2019-04-22T05:19:26.553Z,72.01
2019-04-22T05:21:22.412Z,71.90
2019-04-22T05:23:45.599Z,71.28
2019-04-22T05:24:28.268Z,71.07
2019-04-22T05:25:36.845Z,70.99
2019-04-22T05:26:40.033Z,70.54
2019-04-22T05:27:41.198Z,70.53
2019-04-22T05:28:35.057Z,69.88
2019-04-22T05:29:54.162Z,70.17
2019-04-22T05:30:26.755Z,70.06
2019-04-22T05:31:33.980Z,69.56
2019-04-22T05:33:34.818Z,67.75
2019-04-22T05:34:36.562Z,66.52
2019-04-22T05:35:37.828Z,65.31
2019-04-22T05:36:28.247Z,65.06
2019-04-22T05:37:31.007Z,64.79
2019-04-22T05:39:28.451Z,63.30
2019-04-22T05:40:28.239Z,63.25
2019-04-22T05:41:32.281Z,61.82
2019-04-22T05:42:32.169Z,61.55
2019-04-22T05:43:27.369Z,62.64
2019-04-22T05:44:29.548Z,62.55
2019-04-22T05:45:31.457Z,63.01
2019-04-22T05:46:34.535Z,63.03
2019-04-22T05:47:39.321Z,63.21
2019-04-22T05:49:31.183Z,63.52
2019-04-22T05:50:24.542Z,63.71
2019-04-22T05:51:38.522Z,63.78
2019-04-22T05:52:36.481Z,63.98
2019-04-22T05:53:32.395Z,63.75
2019-04-22T05:54:27.870Z,64.14
2019-04-22T05:55:30.600Z,63.75
2019-04-22T05:56:38.655Z,63.90
2019-04-22T05:57:24.738Z,63.82
2019-04-22T05:58:38.220Z,63.43
2019-04-22T05:59:39.552Z,63.15
2019-04-22T06:01:06.581Z,63.24
2019-04-22T06:01:48.124Z,63.57
2019-04-22T06:02:47.581Z,62.22
2019-04-22T06:03:37.907Z,61.35
2019-04-22T06:04:29.625Z,60.51
2019-04-22T06:05:34.351Z,60.09
2019-04-22T06:06:22.440Z,59.15
2019-04-22T06:07:33.724Z,58.55
2019-04-22T06:08:41.600Z,58.10
2019-04-22T06:09:32.649Z,57.35
2019-04-22T06:10:39.835Z,57.26
2019-04-22T06:11:28.419Z,56.83
2019-04-22T06:12:20.949Z,56.45
2019-04-22T06:13:33.047Z,56.74
2019-04-22T06:14:31.340Z,56.98
2019-04-22T06:16:38.170Z,59.22
2019-04-22T06:17:43.137Z,58.52
2019-04-22T06:18:33.500Z,57.59
2019-04-22T06:19:24.800Z,57.11
2019-04-22T06:20:32.739Z,57.46
2019-04-22T06:22:43.307Z,58.25
2019-04-22T06:23:44.073Z,59.19
2019-04-22T06:24:38.553Z,58.99
2019-04-22T06:26:48.926Z,57.48
2019-04-22T06:27:30.479Z,55.86
2019-04-22T06:28:41.409Z,54.59
2019-04-22T06:29:25.053Z,53.07
2019-04-22T06:30:29.148Z,50.83
2019-04-22T06:31:54.452Z,48.85
2019-04-22T06:33:31.995Z,46.93
2019-04-22T06:34:40.407Z,46.64
2019-04-22T06:35:32.495Z,46.24
2019-04-22T06:36:29.487Z,48.10
2019-04-22T06:37:35.053Z,46.74
2019-04-22T06:39:36.916Z,45.11
2019-04-22T06:42:28.472Z,41.94
2019-04-22T06:43:29.137Z,40.05
2019-04-22T06:44:38.904Z,39.69
2019-04-22T06:45:33.772Z,38.82
2019-04-22T06:46:30.101Z,37.92
2019-04-22T06:47:52.696Z,37.96
2019-04-22T06:49:35.846Z,40.21
2019-04-22T06:50:30.262Z,42.90
2019-04-22T06:52:35.014Z,39.83
2019-04-22T06:53:35.961Z,38.53
2019-04-22T06:55:33.016Z,38.29
2019-04-22T06:56:35.205Z,37.64
2019-04-22T06:57:39.450Z,37.02
2019-04-22T06:58:36.592Z,36.37
2019-04-22T06:59:36.373Z,35.19
2019-04-22T07:00:38.133Z,34.21
2019-04-22T07:02:46.453Z,33.64
2019-04-22T07:03:42.779Z,32.49
2019-04-22T07:04:33.680Z,34.36
2019-04-22T07:05:28.675Z,35.65
2019-04-22T07:06:42.345Z,37.78
2019-04-22T07:07:39.988Z,36.80
2019-04-22T07:09:07.825Z,34.54
2019-04-22T07:09:43.498Z,31.71
2019-04-22T07:12:31.375Z,31.82
2019-04-22T07:13:27.468Z,31.70
2019-04-22T07:14:35.632Z,33.94
2019-04-22T07:15:46.419Z,36.22
2019-04-22T07:16:37.877Z,33.83
2019-04-22T07:17:45.922Z,33.36
2019-04-22T07:18:35.951Z,34.03
2019-04-22T07:19:28.863Z,34.91
2019-04-22T07:20:36.749Z,35.03
2019-04-22T07:21:37.630Z,35.54
2019-04-22T07:22:38.942Z,34.91
2019-04-22T07:24:35.594Z,34.42
2019-04-22T07:25:35.047Z,32.68
2019-04-22T07:27:34.247Z,33.07
2019-04-22T07:28:29.122Z,34.71
2019-04-22T07:29:39.246Z,33.49
2019-04-22T07:30:28.017Z,32.02
2019-04-22T07:31:34.391Z,33.48
2019-04-22T07:32:58.066Z,33.42
2019-04-22T07:33:39.314Z,34.42
2019-04-22T07:34:27.740Z,33.30
2019-04-22T07:38:31.360Z,33.03
2019-04-22T07:39:35.476Z,31.76
2019-04-22T07:40:40.345Z,30.20
2019-04-22T07:41:41.113Z,32.17
2019-04-22T07:43:55.719Z,29.76
2019-04-22T07:44:31.266Z,30.88
2019-04-22T07:45:36.256Z,31.36
2019-04-22T07:46:26.358Z,32.26
2019-04-22T07:47:40.915Z,32.78
2019-04-22T07:48:43.319Z,33.96
2019-04-22T07:49:39.028Z,33.29
2019-04-22T07:52:35.398Z,31.42
2019-04-22T07:53:33.572Z,30.52
2019-04-22T07:54:25.895Z,30.03
2019-04-22T07:57:28.733Z,30.61
2019-04-22T07:59:28.353Z,32.14
2019-04-22T08:01:26.856Z,31.97
2019-04-22T08:02:37.882Z,34.20
2019-04-22T08:03:46.753Z,34.21
2019-04-22T08:04:34.653Z,33.39
2019-04-22T08:06:34.647Z,32.66
2019-04-22T08:07:38.356Z,33.00
2019-04-22T08:08:38.842Z,33.18
2019-04-22T08:11:42.321Z,31.79
2019-04-22T08:12:38.614Z,31.26
2019-04-22T08:13:38.537Z,31.75
2019-04-22T08:14:42.258Z,32.25
2019-04-22T08:15:38.691Z,32.08
2019-04-22T08:16:35.047Z,32.03
2019-04-22T08:18:35.901Z,32.65
2019-04-22T08:19:33.133Z,32.79
2019-04-22T08:20:31.915Z,32.62
2019-04-22T08:21:44.377Z,31.10
2019-04-22T08:22:33.964Z,30.59
2019-04-22T08:23:31.330Z,30.17
2019-04-22T08:25:38.835Z,28.20
2019-04-22T08:26:41.178Z,28.18
2019-04-22T08:27:30.176Z,26.00
2019-04-22T08:28:39.302Z,27.96
2019-04-22T08:29:37.096Z,28.26
2019-04-22T08:33:35.450Z,29.66
2019-04-22T08:34:38.892Z,28.93
2019-04-22T08:35:52.299Z,30.35
2019-04-22T08:36:40.964Z,29.10
2019-04-22T08:37:48.066Z,27.40
2019-04-22T08:38:37.611Z,29.21
2019-04-22T08:40:43.122Z,29.87
2019-04-22T08:41:34.336Z,30.60
2019-04-22T08:42:36.090Z,30.35
2019-04-22T08:43:32.969Z,30.17
2019-04-22T08:45:39.006Z,30.08
2019-04-22T08:46:40.970Z,28.81
2019-04-22T08:48:36.475Z,28.06
2019-04-22T08:49:44.483Z,27.62
2019-04-22T08:50:29.521Z,27.92
2019-04-22T08:52:27.574Z,28.16
2019-04-22T08:53:45.421Z,27.07
2019-04-22T08:56:39.786Z,27.93
2019-04-22T08:57:55.553Z,27.98
2019-04-22T08:58:28.021Z,28.18
2019-04-22T08:59:22.123Z,26.35
2019-04-22T09:00:34.223Z,25.63
2019-04-22T09:02:39.949Z,24.90
2019-04-22T09:03:40.049Z,25.95
2019-04-22T09:04:30.551Z,24.99
2019-04-22T09:05:48.598Z,25.32
2019-04-22T09:06:49.454Z,26.81
2019-04-22T09:08:34.069Z,27.33
2019-04-22T09:10:37.952Z,28.92
2019-04-22T09:11:33.758Z,29.23
2019-04-22T09:12:51.755Z,29.09
2019-04-22T09:13:31.762Z,28.93
2019-04-22T09:14:40.576Z,29.02
2019-04-22T09:15:34.529Z,27.99
2019-04-22T09:16:39.391Z,28.43
2019-04-22T09:17:35.113Z,27.72
2019-04-22T09:18:28.518Z,25.90
2019-04-22T09:19:24.068Z,26.77
2019-04-22T09:21:38.952Z,25.17
2019-04-22T09:22:39.422Z,24.61
2019-04-22T09:23:30.209Z,25.53
2019-04-22T09:24:30.353Z,26.47
2019-04-22T09:25:36.032Z,28.26
2019-04-22T09:26:30.711Z,27.87
2019-04-22T09:27:41.245Z,28.70
2019-04-22T09:28:37.747Z,28.58
2019-04-22T09:30:43.308Z,27.33
2019-04-22T09:31:37.243Z,27.09
2019-04-22T09:32:38.875Z,26.63
2019-04-22T09:33:30.331Z,26.95
2019-04-22T09:34:41.700Z,26.10
2019-04-22T09:35:38.682Z,26.10
2019-04-22T09:36:29.768Z,25.62
2019-04-22T09:37:39.173Z,26.43
2019-04-22T09:38:38.193Z,27.39
2019-04-22T09:39:29.403Z,25.75
2019-04-22T09:40:37.042Z,24.31
2019-04-22T09:41:41.267Z,25.58
2019-04-22T09:42:39.778Z,25.21
2019-04-22T09:44:34.773Z,26.14
2019-04-22T09:45:41.820Z,27.14
2019-04-22T09:46:45.441Z,25.17
2019-04-22T09:47:40.065Z,26.87
2019-04-22T09:48:33.188Z,26.11
2019-04-22T09:50:29.360Z,27.88
2019-04-22T09:51:37.429Z,27.79
2019-04-22T09:52:28.010Z,28.10
2019-04-22T09:55:29.867Z,27.81
2019-04-22T09:56:41.832Z,28.46
2019-04-22T09:57:24.485Z,27.98
2019-04-22T09:58:39.805Z,27.74
2019-04-22T09:59:36.723Z,27.61
2019-04-22T10:00:37.560Z,27.43
2019-04-22T10:01:38.463Z,25.82
2019-04-22T10:03:25.894Z,26.09
2019-04-22T10:06:27.869Z,27.93
2019-04-22T10:07:27.254Z,28.40
2019-04-22T10:08:41.145Z,28.92
2019-04-22T10:09:51.750Z,28.20
2019-04-22T10:10:37.984Z,26.82
2019-04-22T10:12:36.525Z,24.59
2019-04-22T10:13:45.136Z,26.08
2019-04-22T10:15:25.784Z,25.80
2019-04-22T10:16:37.130Z,26.82
2019-04-22T10:17:39.668Z,27.37
2019-04-22T10:18:42.017Z,27.36
2019-04-22T10:19:39.305Z,28.58
2019-04-22T10:21:35.310Z,27.30
2019-04-22T10:22:39.354Z,27.80
2019-04-22T10:23:39.272Z,28.47
2019-04-22T10:24:31.954Z,29.66
2019-04-22T10:25:35.397Z,27.98
2019-04-22T10:26:40.935Z,27.65
2019-04-22T10:27:25.898Z,27.84
2019-04-22T10:28:32.260Z,28.44
2019-04-22T10:29:43.455Z,26.62
2019-04-22T10:30:43.903Z,27.01
2019-04-22T10:31:39.818Z,26.02
2019-04-22T10:32:38.071Z,25.05
2019-04-22T10:33:27.127Z,27.33
2019-04-22T10:34:23.258Z,27.76
2019-04-22T10:35:17.280Z,27.35
2019-04-22T10:36:13.029Z,26.71
2019-04-22T10:37:16.283Z,26.03
2019-04-22T10:38:12.349Z,27.77
2019-04-22T10:39:12.671Z,29.36
2019-04-22T10:40:13.404Z,27.45
2019-04-22T10:41:12.400Z,25.49
2019-04-22T10:42:11.672Z,24.21
2019-04-22T10:43:11.696Z,24.91
2019-04-22T10:44:12.909Z,25.20
2019-04-22T10:45:12.366Z,26.00
2019-04-22T10:46:12.161Z,25.45
2019-04-22T10:47:11.914Z,24.98
2019-04-22T10:48:12.390Z,26.40
2019-04-22T10:49:12.708Z,25.96
2019-04-22T10:50:12.285Z,26.84
2019-04-22T10:51:12.698Z,27.79
2019-04-22T10:52:12.916Z,28.17
2019-04-22T10:53:11.670Z,27.32
2019-04-22T10:54:11.692Z,26.43
2019-04-22T10:55:11.743Z,26.99
2019-04-22T10:56:12.679Z,27.31
2019-04-22T10:57:11.704Z,26.63
2019-04-22T10:58:12.811Z,26.40
2019-04-22T10:59:11.684Z,26.24
2019-04-22T11:00:11.708Z,26.04
2019-04-22T11:01:11.687Z,28.11
2019-04-22T11:02:11.790Z,27.40
2019-04-22T11:03:12.077Z,26.69
2019-04-22T11:04:13.131Z,25.73
2019-04-22T11:05:12.252Z,26.27
2019-04-22T11:06:11.722Z,26.42
2019-04-22T11:07:13.197Z,27.69
2019-04-22T11:08:22.705Z,27.25
2019-04-22T11:09:12.446Z,25.82
2019-04-22T11:10:32.359Z,26.31
2019-04-22T11:11:26.214Z,26.46
2019-04-22T11:12:16.790Z,26.73
2019-04-22T11:13:11.713Z,26.24
2019-04-22T11:14:12.863Z,24.55
2019-04-22T11:15:11.812Z,26.60
2019-04-22T11:16:11.780Z,24.97
2019-04-22T11:17:11.699Z,26.70
2019-04-22T11:18:11.731Z,26.25
2019-04-22T11:19:11.905Z,26.08
2019-04-22T11:20:11.721Z,26.31
2019-04-22T11:21:11.720Z,26.13
2019-04-22T11:22:20.029Z,25.83
2019-04-22T11:23:11.704Z,25.64
2019-04-22T11:24:12.614Z,24.58
2019-04-22T11:25:11.950Z,25.21
2019-04-22T11:26:12.220Z,26.81
2019-04-22T11:27:12.637Z,26.22
2019-04-22T11:28:11.818Z,24.81
2019-04-22T11:29:12.059Z,25.33
2019-04-22T11:30:13.394Z,25.29
2019-04-22T11:31:12.479Z,25.84
2019-04-22T11:32:12.921Z,23.70
2019-04-22T11:33:12.076Z,23.03
2019-04-22T11:34:13.007Z,24.78
2019-04-22T11:35:11.946Z,26.22
2019-04-22T11:36:11.758Z,26.52
2019-04-22T11:37:12.270Z,25.81
2019-04-22T11:38:12.907Z,25.06
2019-04-22T11:39:13.589Z,24.90
2019-04-22T11:40:18.921Z,24.59
2019-04-22T11:41:12.637Z,25.19
2019-04-22T11:42:12.104Z,25.35
2019-04-22T11:43:12.406Z,27.36
2019-04-22T11:44:11.739Z,26.93
2019-04-22T11:45:13.112Z,26.81
2019-04-22T11:46:11.739Z,27.34
2019-04-22T11:47:11.900Z,27.25
2019-04-22T11:48:13.167Z,26.83
2019-04-22T11:49:12.126Z,27.05
2019-04-22T11:50:12.181Z,26.51
2019-04-22T11:51:11.773Z,26.94
2019-04-22T11:52:14.437Z,26.56
2019-04-22T11:53:13.020Z,26.88
2019-04-22T11:54:12.545Z,27.66
2019-04-22T11:55:12.856Z,28.00
2019-04-22T11:56:13.008Z,26.09
2019-04-22T11:57:12.852Z,27.57
2019-04-22T11:58:12.901Z,26.19
2019-04-22T11:59:12.913Z,29.49
2019-04-22T12:00:12.676Z,29.13
2019-04-22T12:01:12.777Z,28.84
2019-04-22T12:02:14.428Z,28.64
2019-04-22T12:03:12.667Z,29.72
2019-04-22T12:04:12.072Z,27.38
2019-04-22T12:05:12.022Z,27.13
2019-04-22T12:06:11.769Z,27.36
2019-04-22T12:07:12.828Z,27.11
2019-04-22T12:08:13.103Z,26.90
2019-04-22T12:09:12.135Z,27.45
2019-04-22T12:10:19.236Z,25.46
2019-04-22T12:11:11.760Z,25.23
2019-04-22T12:12:11.998Z,24.28
2019-04-22T12:13:12.267Z,25.10
2019-04-22T12:14:11.856Z,25.89
2019-04-22T12:15:12.712Z,26.53
2019-04-22T12:16:11.797Z,25.39
2019-04-22T12:17:11.801Z,25.74
2019-04-22T12:18:13.014Z,24.72
2019-04-22T12:19:13.028Z,26.42
2019-04-22T12:20:14.051Z,25.78
2019-04-22T12:21:13.166Z,27.17
2019-04-22T12:22:13.185Z,27.27
2019-04-22T12:23:12.726Z,26.89
2019-04-22T12:24:13.060Z,27.10
2019-04-22T12:25:12.472Z,27.65
2019-04-22T12:26:15.025Z,27.76
2019-04-22T12:27:11.794Z,27.94
2019-04-22T12:28:12.992Z,25.87
2019-04-22T12:29:13.178Z,26.28
2019-04-22T12:30:11.800Z,27.85
2019-04-22T12:31:13.357Z,27.43
2019-04-22T12:32:11.800Z,26.39
2019-04-22T12:33:14.546Z,26.15
2019-04-22T12:34:13.202Z,25.16
2019-04-22T12:35:11.799Z,26.22
2019-04-22T12:36:12.833Z,27.66
2019-04-22T12:37:14.905Z,27.42
2019-04-22T12:38:14.319Z,27.73
2019-04-22T12:39:11.817Z,28.47
2019-04-22T12:40:13.075Z,27.43
2019-04-22T12:41:12.596Z,25.94
2019-04-22T12:42:13.066Z,26.37
2019-04-22T12:43:12.847Z,26.26
2019-04-22T12:44:11.824Z,25.14
2019-04-22T12:45:12.170Z,25.18
2019-04-22T12:46:12.166Z,24.68
2019-04-22T12:47:13.048Z,24.96
2019-04-22T12:48:12.823Z,25.14
2019-04-22T12:49:12.166Z,24.49
2019-04-22T12:50:17.810Z,24.10
2019-04-22T12:51:13.183Z,24.65
2019-04-22T12:52:23.419Z,24.11
2019-04-22T12:53:16.703Z,22.67
2019-04-22T12:54:13.138Z,22.52
2019-04-22T12:55:12.056Z,24.40
2019-04-22T12:56:12.697Z,24.85
2019-04-22T12:57:12.342Z,24.15
2019-04-22T12:58:11.940Z,23.59
2019-04-22T12:59:11.860Z,25.10
2019-04-22T13:00:13.459Z,26.13
2019-04-22T13:01:12.839Z,26.03
2019-04-22T13:02:13.376Z,25.08
2019-04-22T13:03:11.865Z,23.92
2019-04-22T13:04:14.184Z,25.07
2019-04-22T13:05:12.450Z,24.05
2019-04-22T13:06:12.039Z,22.84
2019-04-22T13:07:11.937Z,22.14
2019-04-22T13:08:11.862Z,23.68
2019-04-22T13:09:12.663Z,24.33
2019-04-22T13:10:11.897Z,22.75
2019-04-22T13:11:14.452Z,24.77
2019-04-22T13:12:13.140Z,25.68
2019-04-22T13:13:13.218Z,24.54
2019-04-22T13:14:12.738Z,23.69
2019-04-22T13:15:11.882Z,24.32
2019-04-22T13:16:13.385Z,24.62
2019-04-22T13:17:12.275Z,25.34
2019-04-22T13:18:20.788Z,24.30
2019-04-22T13:19:15.241Z,24.69
2019-04-22T13:20:15.088Z,23.89
2019-04-22T13:21:13.105Z,24.26
2019-04-22T13:22:12.551Z,23.93
2019-04-22T13:23:11.888Z,22.99
2019-04-22T13:24:13.220Z,23.12
2019-04-22T13:25:12.435Z,22.55
2019-04-22T13:26:12.771Z,22.46
2019-04-22T13:27:12.973Z,22.71
2019-04-22T13:28:13.202Z,24.79
2019-04-22T13:29:12.878Z,23.77
2019-04-22T13:30:12.462Z,23.49
2019-04-22T13:31:11.922Z,24.27
2019-04-22T13:32:13.199Z,23.00
2019-04-22T13:33:12.629Z,24.12
2019-04-22T13:35:12.819Z,24.71
2019-04-22T13:36:12.068Z,22.72
2019-04-22T13:37:12.810Z,24.13
2019-04-22T13:38:12.967Z,21.87
2019-04-22T13:39:13.165Z,21.39
2019-04-22T13:40:12.781Z,23.01
2019-04-22T13:41:26.742Z,23.26
2019-04-22T13:42:16.181Z,22.96
2019-04-22T13:43:13.168Z,22.45
2019-04-22T13:44:12.744Z,22.62
2019-04-22T13:45:11.927Z,22.72
2019-04-22T13:46:12.477Z,22.46
2019-04-22T13:47:28.410Z,21.74
2019-04-22T13:48:33.581Z,22.22
2019-04-22T13:49:40.686Z,21.48
2019-04-22T13:52:45.148Z,23.02
2019-04-22T13:53:44.746Z,21.72
2019-04-22T13:54:48.627Z,21.12
2019-04-22T13:55:40.870Z,20.84
2019-04-22T13:56:32.831Z,20.19
2019-04-22T13:57:26.162Z,19.50
2019-04-22T13:58:24.312Z,22.44
2019-04-22T13:59:23.043Z,23.17
2019-04-22T14:00:13.532Z,23.85
2019-04-22T14:01:12.726Z,23.09
2019-04-22T14:02:12.769Z,22.07
2019-04-22T14:03:12.875Z,22.49
2019-04-22T14:04:12.449Z,21.96
2019-04-22T14:05:12.859Z,21.29
2019-04-22T14:06:13.185Z,21.29
2019-04-22T14:07:12.642Z,21.54
2019-04-22T14:08:12.651Z,22.10
2019-04-22T14:09:13.566Z,21.52
2019-04-22T14:10:12.221Z,21.31
2019-04-22T14:11:21.542Z,21.30
2019-04-22T14:12:13.782Z,23.50
2019-04-22T14:13:12.218Z,22.96
2019-04-22T14:14:12.742Z,22.45
2019-04-22T14:15:11.964Z,23.06
2019-04-22T14:16:13.280Z,23.28
2019-04-22T14:17:13.118Z,22.17
2019-04-22T14:18:12.898Z,21.88
2019-04-22T14:19:12.031Z,21.29
2019-04-22T14:20:13.129Z,21.17
2019-04-22T14:21:12.513Z,20.95
2019-04-22T14:22:11.992Z,20.48
2019-04-22T14:23:13.646Z,21.77
2019-04-22T14:24:13.797Z,22.86
2019-04-22T14:25:12.559Z,24.51
2019-04-22T14:26:13.357Z,22.81
2019-04-22T14:27:25.572Z,22.61
2019-04-22T14:28:16.938Z,22.37
2019-04-22T14:29:13.390Z,22.63
2019-04-22T14:30:12.566Z,24.09
2019-04-22T14:31:12.758Z,23.17
2019-04-22T14:33:12.267Z,23.17
2019-04-22T14:34:13.368Z,24.30
2019-04-22T14:35:13.246Z,23.73
2019-04-22T14:36:11.986Z,23.47
2019-04-22T14:37:12.102Z,22.56
2019-04-22T14:38:12.405Z,22.46
2019-04-22T14:39:12.346Z,23.73
2019-04-22T14:40:13.605Z,23.04
2019-04-22T14:41:30.532Z,21.75
2019-04-22T14:43:24.731Z,21.35
2019-04-22T14:44:23.302Z,23.93
2019-04-22T14:44:24.523Z,20.89
2019-04-22T14:45:41.550Z,22.27
2019-04-22T14:46:29.834Z,21.78
2019-04-22T14:47:26.524Z,22.48
2019-04-22T14:48:41.904Z,22.66
2019-04-22T14:49:28.835Z,23.48
2019-04-22T14:51:31.916Z,22.46
2019-04-22T14:52:30.692Z,23.18
2019-04-22T14:53:30.838Z,20.96
2019-04-22T14:54:26.469Z,21.98
2019-04-22T14:55:18.978Z,22.49
2019-04-22T14:56:12.802Z,23.38
2019-04-22T14:57:12.939Z,23.66
2019-04-22T14:58:13.043Z,23.47
2019-04-22T14:59:13.365Z,22.37
2019-04-22T15:00:12.018Z,22.67
2019-04-22T15:01:12.939Z,22.31
2019-04-22T15:02:12.026Z,21.78
2019-04-22T15:03:13.408Z,21.20
2019-04-22T15:04:13.344Z,21.97
2019-04-22T15:05:12.282Z,22.82
2019-04-22T15:06:12.615Z,23.36
2019-04-22T15:07:12.722Z,24.80
2019-04-22T15:08:13.157Z,25.58
2019-04-22T15:09:12.272Z,25.20
2019-04-22T15:10:13.390Z,24.14
2019-04-22T15:11:13.126Z,23.91
2019-04-22T15:12:21.957Z,23.79